Terminal Aerodrome Forecast
Issued by NWS Memphis, TN

Home | Current Version | Previous Version | Text Only | Print | Product List | Glossary On
Versions: 1 2 3 4 5 6 7 8 9 10 11 12 13 14 15 16
517
FTUS44 KMEG 250901 AAC
TAFJBR
TAF AMD
KJBR 250901Z 2509/2606 VRB06KT P6SM -RA OVC050
     FM251500 18018G28KT P6SM VCTS BKN035CB
     FM252000 19020G30KT P6SM VCSH SCT020 OVC200
     FM260000 22008KT P6SM SCT050 OVC250=

USA.gov is the U.S. government's official web portal to all federal, state and local government web resources and services.